Hovedside
METAR-TAF:

METAR-TAF

Lufthavner :

Stord lufthavn. Sørstokken

Stord, Norge

breddegrad: 59-48N, lengdegrad: 005-21E, høyde over havet: 49 m

Gjeldene værobservasjon

Denne rapporten ble laget for 39 minutter siden, klokken 16:50 UTC
Vind 4 kt fra Vest-sørvest, skiftende mellom Sørvest og Vest
Temperatur 20°C
Luftfuktighet 53%
Trykk 1019 hPa
Sikt 10 km eller mer
ingen skyer under 1500 m og ingen bygeskyer

METAR: ENSO 241650Z 25004KT 220V280 CAVOK 20/10 Q1019 Q1019

Tid: 19:29 (17:29 UTC)

Varsel

Denne rapporten ble laget for 6 timer og 29 minutter siden, klokken 11:00 UTC
Varsel gyldig fra 24. klokken 12 UTC til 24. klokken 18 UTC
Vind 5 kt fra Sør-sørvest
Sikt 10 km eller mer
ingen skyer under 1500 m og ingen bygeskyer

TAF: ENSO 241100Z 2412/2418 21005KT CAVOK

Værobservasjoner og værvarsel for over 4000 flyplasser (METAR- og TAF-rapporter).

Tilgjengelige stasjoner er representert av de røde og gule prikkene på kartet.

Hold musepekeren over prikken for å se navnet på stasjonen.

Klikk så for å se værobservasjoner og -varsler.

For å forandre kartet kan du klikke på den grønne knappen med svart kryss for å zoome inn, på den grønne knappen med strek for å zoome ut, eller på de grønne pilene for å se tilstøtende kart.


METAR-TAF: